createdAt,value
2023-03-23T15:58:55.986Z,58.47
2023-03-23T16:01:43.612Z,58.01
2023-03-23T16:04:17.360Z,58.66
2023-03-23T16:06:46.848Z,58.63
2023-03-23T16:09:18.885Z,58.58
2023-03-23T16:11:48.006Z,58.61
2023-03-23T16:14:19.457Z,59.09
2023-03-23T16:16:52.226Z,59.54
2023-03-23T16:19:23.808Z,59.78
2023-03-23T16:21:52.811Z,60.63
2023-03-23T16:24:21.946Z,60.95
2023-03-23T16:26:50.942Z,61.11
2023-03-23T16:29:39.868Z,61.95
2023-03-23T16:32:09.255Z,61.92
2023-03-23T16:34:38.461Z,62.32
2023-03-23T16:37:08.324Z,62.84
2023-03-23T16:39:38.355Z,63.43
2023-03-23T16:42:07.547Z,63.21
2023-03-23T16:44:37.065Z,63.50
2023-03-23T16:47:06.261Z,63.75
2023-03-23T16:49:35.521Z,63.94
2023-03-23T16:52:05.622Z,64.04
2023-03-23T16:54:37.222Z,64.39
2023-03-23T16:57:06.464Z,64.43
2023-03-23T16:59:37.122Z,64.45
2023-03-23T17:02:06.312Z,64.88
2023-03-23T17:04:36.897Z,65.17
2023-03-23T17:07:07.864Z,65.56
2023-03-23T17:09:40.513Z,65.38
2023-03-23T17:12:10.538Z,65.41
2023-03-23T17:14:42.474Z,65.95
2023-03-23T17:17:14.351Z,66.00
2023-03-23T17:19:45.602Z,66.23
2023-03-23T17:22:14.564Z,66.22
2023-03-23T17:24:47.150Z,66.47
2023-03-23T17:27:19.734Z,66.70
2023-03-23T17:29:49.359Z,66.68
2023-03-23T17:32:21.170Z,66.98
2023-03-23T17:34:50.633Z,67.35
2023-03-23T17:37:20.600Z,67.41
2023-03-23T17:40:06.742Z,67.47
2023-03-23T17:42:39.551Z,67.41
2023-03-23T17:45:10.868Z,67.94
2023-03-23T17:47:41.190Z,68.10
2023-03-23T17:50:12.680Z,68.20
2023-03-23T17:52:42.754Z,68.22
2023-03-23T17:55:12.457Z,68.58
2023-03-23T17:57:42.181Z,68.86
2023-03-23T18:00:20.110Z,68.83
2023-03-23T18:02:49.714Z,68.82
2023-03-23T18:05:21.685Z,69.08
2023-03-23T18:07:50.790Z,68.94
2023-03-23T18:10:20.603Z,69.13
2023-03-23T18:12:55.826Z,69.11
2023-03-23T18:15:28.646Z,69.25
2023-03-23T18:17:59.370Z,69.21
2023-03-23T18:20:30.442Z,69.29
2023-03-23T18:23:03.134Z,68.93
2023-03-23T18:25:33.562Z,68.85
2023-03-23T18:28:05.547Z,68.91
2023-03-23T18:30:36.136Z,68.88
2023-03-23T18:33:05.678Z,68.78
2023-03-23T18:35:35.224Z,68.78
2023-03-23T18:38:04.487Z,68.70
2023-03-23T18:40:35.607Z,68.73
2023-03-23T18:43:06.491Z,68.16
2023-03-23T18:45:43.159Z,68.39
2023-03-23T18:48:15.134Z,68.05
2023-03-23T18:50:49.402Z,68.12
2023-03-23T18:53:20.830Z,68.04
2023-03-23T18:55:50.874Z,68.02
2023-03-23T18:58:23.917Z,67.52
2023-03-23T19:01:00.049Z,67.33
2023-03-23T19:03:30.486Z,67.01
2023-03-23T19:06:01.929Z,66.87
2023-03-23T19:08:31.915Z,66.61
2023-03-23T19:11:04.427Z,66.36
2023-03-23T19:13:36.885Z,66.16
2023-03-23T19:16:08.626Z,66.15
2023-03-23T19:18:43.741Z,65.79
2023-03-23T19:21:16.559Z,65.80
2023-03-23T19:23:52.283Z,65.47
2023-03-23T19:26:33.397Z,65.59
2023-03-23T19:32:00.373Z,65.24
2023-03-23T19:34:30.205Z,65.13
2023-03-23T19:37:05.749Z,64.94
2023-03-23T19:39:41.621Z,64.55
2023-03-23T19:42:17.133Z,64.36
2023-03-23T19:44:46.530Z,64.51
2023-03-23T19:47:18.067Z,64.86
2023-03-23T19:49:47.402Z,65.14
2023-03-23T19:52:21.346Z,65.07
2023-03-23T19:54:50.464Z,65.13
2023-03-23T19:57:22.543Z,65.17
2023-03-23T19:59:51.866Z,65.26
2023-03-23T20:02:21.033Z,65.59
2023-03-23T20:04:52.765Z,65.90
2023-03-23T20:07:26.528Z,66.02
2023-03-23T20:09:55.308Z,66.28
2023-03-23T20:12:24.199Z,66.97
2023-03-23T20:14:53.585Z,67.41
2023-03-23T20:17:22.786Z,67.96
2023-03-23T20:19:52.515Z,68.50
2023-03-23T20:22:24.416Z,68.62
2023-03-23T20:24:53.588Z,69.23
2023-03-23T20:27:22.976Z,69.44
2023-03-23T20:29:55.359Z,69.98
2023-03-23T20:32:24.575Z,69.74
2023-03-23T20:34:53.703Z,70.01
2023-03-23T20:37:23.642Z,70.55
2023-03-23T20:39:56.048Z,70.32
2023-03-23T20:42:25.475Z,70.34
2023-03-23T20:44:54.678Z,70.63
2023-03-23T20:47:23.732Z,70.69
2023-03-23T20:49:58.333Z,70.93
2023-03-23T20:52:27.672Z,71.02
2023-03-23T20:54:57.987Z,71.23
2023-03-23T20:57:28.300Z,71.30
2023-03-23T20:59:57.490Z,71.04
2023-03-23T21:02:29.108Z,71.59
2023-03-23T21:05:03.983Z,71.75
2023-03-23T21:07:33.122Z,71.78
2023-03-23T21:10:02.381Z,71.53
2023-03-23T21:12:31.400Z,71.76
2023-03-23T21:15:00.691Z,71.83
2023-03-23T21:17:29.822Z,71.80
2023-03-23T21:19:58.968Z,71.96
2023-03-23T21:22:28.496Z,71.93
2023-03-23T21:24:58.632Z,72.04
2023-03-23T21:27:27.679Z,72.29
2023-03-23T21:29:59.744Z,72.52
2023-03-23T21:32:28.888Z,72.67
2023-03-23T21:35:02.482Z,72.75
2023-03-23T21:37:32.232Z,72.91
2023-03-23T21:40:02.841Z,73.13
2023-03-23T21:42:31.811Z,73.12
2023-03-23T21:45:02.245Z,73.23
2023-03-23T21:47:31.692Z,73.32
2023-03-23T21:50:01.462Z,73.39
2023-03-23T21:52:32.287Z,73.40
2023-03-23T21:55:09.538Z,73.33
2023-03-23T21:57:40.753Z,73.40
2023-03-23T22:00:17.369Z,73.54
2023-03-23T22:02:46.349Z,73.69
2023-03-23T22:05:15.458Z,73.75
2023-03-23T22:07:47.339Z,73.91
2023-03-23T22:10:17.916Z,74.01
2023-03-23T22:12:49.340Z,74.13
2023-03-23T22:15:27.175Z,74.37
2023-03-23T22:17:56.298Z,74.51
2023-03-23T22:20:26.314Z,74.45
2023-03-23T22:22:55.160Z,74.61
2023-03-23T22:25:24.330Z,74.54
2023-03-23T22:27:54.838Z,74.48
2023-03-23T22:30:24.177Z,74.78
2023-03-23T22:32:54.315Z,74.62
2023-03-23T22:35:23.907Z,74.65
2023-03-23T22:37:53.178Z,74.76
2023-03-23T22:40:23.453Z,74.50
2023-03-23T22:42:52.373Z,74.77
2023-03-23T22:45:22.878Z,74.63
2023-03-23T22:47:51.908Z,74.67
2023-03-23T22:50:23.498Z,74.32
2023-03-23T22:52:52.400Z,74.16
2023-03-23T22:55:21.404Z,74.38
2023-03-23T22:57:50.295Z,74.19
2023-03-23T23:00:20.211Z,73.88
2023-03-23T23:02:49.341Z,74.04
2023-03-23T23:05:20.048Z,74.08
2023-03-23T23:07:49.094Z,74.00
2023-03-23T23:10:19.159Z,74.00
2023-03-23T23:12:48.201Z,73.78
2023-03-23T23:15:17.922Z,73.91
2023-03-23T23:17:46.895Z,73.86
2023-03-23T23:20:17.105Z,73.70
2023-03-23T23:22:46.622Z,73.80
2023-03-23T23:25:15.778Z,73.85
2023-03-23T23:27:45.558Z,73.96
2023-03-23T23:30:15.109Z,74.08
2023-03-23T23:32:47.038Z,74.04
2023-03-23T23:35:17.234Z,74.07
2023-03-23T23:37:46.623Z,74.24
2023-03-23T23:40:18.209Z,74.06
2023-03-23T23:42:49.032Z,74.33
2023-03-23T23:45:19.645Z,74.41
2023-03-23T23:47:48.554Z,74.43
2023-03-23T23:50:20.442Z,74.29
2023-03-23T23:52:49.529Z,74.65
2023-03-23T23:55:19.974Z,74.89
2023-03-23T23:57:49.732Z,75.14
